createdAt,value
2018-11-05T00:02:09.268Z,21.97
2018-11-05T00:04:41.186Z,23.25
2018-11-05T00:07:13.055Z,20.75
2018-11-05T00:09:44.929Z,25.30
2018-11-05T00:12:16.803Z,22.77
2018-11-05T00:14:48.693Z,26.73
2018-11-05T00:17:20.524Z,30.25
2018-11-05T00:19:52.390Z,25.97
2018-11-05T00:22:24.212Z,22.00
2018-11-05T00:24:56.082Z,25.85
2018-11-05T00:27:27.991Z,28.73
2018-11-05T00:29:59.821Z,28.25
2018-11-05T00:32:31.680Z,25.77
2018-11-05T00:35:03.883Z,30.60
2018-11-05T00:37:35.719Z,27.77
2018-11-05T00:40:08.571Z,29.50
2018-11-05T00:42:41.988Z,28.40
2018-11-05T00:45:14.358Z,29.95
2018-11-05T00:47:46.168Z,31.93
2018-11-05T00:50:18.552Z,32.35
2018-11-05T00:52:50.440Z,28.32
2018-11-05T00:55:22.226Z,34.18
2018-11-05T00:57:54.072Z,34.05
2018-11-05T01:00:25.914Z,31.82
2018-11-05T01:02:57.808Z,39.95
2018-11-05T01:05:29.585Z,33.10
2018-11-05T01:08:01.437Z,37.98
2018-11-05T01:10:33.285Z,37.28
2018-11-05T01:13:05.256Z,34.08
2018-11-05T01:15:37.510Z,34.90
2018-11-05T01:18:11.465Z,37.58
2018-11-05T01:20:43.303Z,38.90
2018-11-05T01:23:15.200Z,40.03
2018-11-05T01:25:47.103Z,41.95
2018-11-05T01:28:18.951Z,44.73
2018-11-05T01:30:50.796Z,45.38
2018-11-05T01:33:22.635Z,42.48
2018-11-05T01:35:54.464Z,41.05
2018-11-05T01:38:26.384Z,40.03
2018-11-05T01:40:58.211Z,41.40
2018-11-05T01:43:30.304Z,44.63
2018-11-05T01:46:02.138Z,46.48
2018-11-05T01:48:33.972Z,42.48
2018-11-05T01:51:10.427Z,46.23
2018-11-05T01:53:42.287Z,47.85
2018-11-05T01:56:14.219Z,42.90
2018-11-05T01:58:46.102Z,49.80
2018-11-05T02:01:21.674Z,48.00
2018-11-05T02:03:53.555Z,47.25
2018-11-05T02:06:25.375Z,45.33
2018-11-05T02:09:01.968Z,44.48
2018-11-05T02:11:33.893Z,43.42
2018-11-05T02:14:05.803Z,49.60
2018-11-05T02:16:37.733Z,49.70
2018-11-05T02:19:09.552Z,48.65
2018-11-05T02:21:41.592Z,50.28
2018-11-05T02:24:13.423Z,46.73
2018-11-05T02:26:49.464Z,52.45
2018-11-05T02:29:21.637Z,55.65
2018-11-05T02:31:53.440Z,45.17
2018-11-05T02:34:25.314Z,51.02
2018-11-05T02:37:01.462Z,47.03
2018-11-05T02:39:33.244Z,43.95
2018-11-05T02:42:05.163Z,47.43
2018-11-05T02:44:41.503Z,46.50
2018-11-05T02:47:13.375Z,45.10
2018-11-05T02:49:45.188Z,44.55
2018-11-05T02:52:17.060Z,52.08
2018-11-05T02:54:48.902Z,42.98
2018-11-05T02:57:20.825Z,45.92
2018-11-05T02:59:52.664Z,50.20
2018-11-05T03:02:24.573Z,54.85
2018-11-05T03:04:56.460Z,43.23
2018-11-05T03:07:28.350Z,43.68
2018-11-05T03:10:00.207Z,51.13
2018-11-05T03:12:32.370Z,44.50
2018-11-05T03:15:04.958Z,46.37
2018-11-05T03:17:47.402Z,45.38
2018-11-05T03:20:19.250Z,45.58
2018-11-05T03:22:51.096Z,45.95
2018-11-05T03:25:22.914Z,47.30
2018-11-05T03:27:54.740Z,46.80
2018-11-05T03:30:26.572Z,46.28
2018-11-05T03:32:58.452Z,49.98
2018-11-05T03:35:30.309Z,53.78
2018-11-05T03:38:02.206Z,42.70
2018-11-05T03:40:34.164Z,45.55
2018-11-05T03:43:06.085Z,42.53
2018-11-05T03:45:37.947Z,47.13
2018-11-05T03:48:09.883Z,53.73
2018-11-05T03:50:41.694Z,47.85
2018-11-05T03:53:14.289Z,44.38
2018-11-05T03:55:46.286Z,46.25
2018-11-05T03:58:18.132Z,38.85
2018-11-05T04:00:49.973Z,43.68
2018-11-05T04:03:21.911Z,42.10
2018-11-05T04:05:53.667Z,45.90
2018-11-05T04:08:25.484Z,42.08
2018-11-05T04:10:57.354Z,46.45
2018-11-05T04:13:29.226Z,45.92
2018-11-05T04:16:01.488Z,37.05
2018-11-05T04:18:33.331Z,43.65
2018-11-05T04:21:05.184Z,39.13
2018-11-05T04:23:37.064Z,46.18
2018-11-05T04:26:08.931Z,44.98
2018-11-05T04:28:40.790Z,43.10
2018-11-05T04:31:12.665Z,36.17
2018-11-05T04:33:44.451Z,39.98
2018-11-05T04:36:16.851Z,37.23
2018-11-05T04:38:48.923Z,43.65
2018-11-05T04:41:21.030Z,48.40
2018-11-05T04:43:52.806Z,49.30
2018-11-05T04:46:24.631Z,43.92
2018-11-05T04:48:56.673Z,51.13
2018-11-05T04:51:28.501Z,65.55
2018-11-05T04:54:00.661Z,50.25
2018-11-05T04:56:32.643Z,42.35
2018-11-05T04:59:05.375Z,49.67
2018-11-05T05:01:41.813Z,46.45
2018-11-05T05:04:13.695Z,44.67
2018-11-05T05:06:45.504Z,56.20
2018-11-05T05:09:17.403Z,56.10
2018-11-05T05:11:49.379Z,48.60
2018-11-05T05:14:21.288Z,44.40
2018-11-05T05:16:53.683Z,54.25
2018-11-05T05:19:25.628Z,45.00
2018-11-05T05:21:57.466Z,44.65
2018-11-05T05:24:29.391Z,47.43
2018-11-05T05:27:01.268Z,51.33
2018-11-05T05:29:33.088Z,50.05
2018-11-05T05:32:04.934Z,50.43
2018-11-05T05:34:36.786Z,51.10
2018-11-05T05:37:08.649Z,55.28
2018-11-05T05:39:40.451Z,52.03
2018-11-05T05:42:12.330Z,52.35
2018-11-05T05:44:44.154Z,54.35
2018-11-05T05:47:15.972Z,54.48
2018-11-05T05:49:47.878Z,55.43
2018-11-05T05:52:20.218Z,52.53
2018-11-05T05:54:52.035Z,60.65
2018-11-05T05:57:23.876Z,57.53
2018-11-05T05:59:56.294Z,52.78
2018-11-05T06:02:28.053Z,47.35
2018-11-05T06:04:59.948Z,55.23
2018-11-05T06:07:31.818Z,51.18
2018-11-05T06:10:03.915Z,49.75
2018-11-05T06:12:35.835Z,55.10
2018-11-05T06:15:10.840Z,46.60
2018-11-05T06:17:42.684Z,54.10
2018-11-05T06:20:17.088Z,50.38
2018-11-05T06:22:49.640Z,49.98
2018-11-05T06:25:21.475Z,55.30
2018-11-05T06:27:53.363Z,56.02
2018-11-05T06:30:25.159Z,51.13
2018-11-05T06:32:57.094Z,57.17
2018-11-05T06:35:29.102Z,58.40
2018-11-05T06:38:00.850Z,41.98
2018-11-05T06:40:32.694Z,54.77
2018-11-05T06:43:04.800Z,51.77
2018-11-05T06:45:36.711Z,54.80
2018-11-05T06:48:09.517Z,49.58
2018-11-05T06:50:41.382Z,59.58
2018-11-05T06:53:13.237Z,53.15
2018-11-05T06:55:45.123Z,55.20
2018-11-05T06:58:17.058Z,56.73
2018-11-05T07:00:48.967Z,51.20
2018-11-05T07:03:20.766Z,52.95
2018-11-05T07:05:52.686Z,47.27
2018-11-05T07:08:24.475Z,57.50
2018-11-05T07:10:56.352Z,55.98
2018-11-05T07:13:28.199Z,54.40
2018-11-05T07:16:00.077Z,54.23
2018-11-05T07:18:32.546Z,51.23
2018-11-05T07:21:04.175Z,44.75
2018-11-05T07:23:36.011Z,44.77
2018-11-05T07:26:07.944Z,47.53
2018-11-05T07:28:39.862Z,44.53
2018-11-05T07:31:11.706Z,48.10
2018-11-05T07:33:43.554Z,46.68
2018-11-05T07:36:15.398Z,49.90
2018-11-05T07:38:47.253Z,54.93
2018-11-05T07:41:19.074Z,46.37
2018-11-05T07:43:50.948Z,44.98
2018-11-05T07:46:22.810Z,47.27
2018-11-05T07:48:54.716Z,48.02
2018-11-05T07:51:26.585Z,48.17
2018-11-05T07:53:58.479Z,51.53
2018-11-05T07:56:30.341Z,43.28
2018-11-05T07:59:02.289Z,49.83
2018-11-05T08:01:34.149Z,54.63
2018-11-05T08:04:05.984Z,44.50
2018-11-05T08:06:38.702Z,47.20
2018-11-05T08:09:11.803Z,44.77
2018-11-05T08:11:43.665Z,42.27
2018-11-05T08:14:15.526Z,46.85
2018-11-05T08:16:47.451Z,49.58
2018-11-05T08:19:19.275Z,49.23
2018-11-05T08:21:51.115Z,43.17
2018-11-05T08:24:22.943Z,38.85
2018-11-05T08:26:54.797Z,44.18
2018-11-05T08:29:26.699Z,43.45
2018-11-05T08:31:58.586Z,39.18
2018-11-05T08:34:30.474Z,43.20
2018-11-05T08:37:02.351Z,45.98
2018-11-05T08:39:34.152Z,42.53
2018-11-05T08:42:06.040Z,40.12
2018-11-05T08:44:37.951Z,43.13
2018-11-05T08:47:09.838Z,43.28
2018-11-05T08:49:41.754Z,42.15
2018-11-05T08:52:13.653Z,55.30
2018-11-05T08:54:45.502Z,45.33
2018-11-05T08:57:17.378Z,40.48
2018-11-05T08:59:49.256Z,53.50
2018-11-05T09:02:21.102Z,45.15
2018-11-05T09:04:53.062Z,38.70
2018-11-05T09:07:24.886Z,44.25
2018-11-05T09:09:56.838Z,53.20
2018-11-05T09:12:28.614Z,44.08
2018-11-05T09:15:00.803Z,39.55
2018-11-05T09:17:32.660Z,47.62
2018-11-05T09:20:05.362Z,50.20
2018-11-05T09:22:37.664Z,46.60
2018-11-05T09:25:10.290Z,42.48
2018-11-05T09:27:42.122Z,48.13
2018-11-05T09:30:16.487Z,41.42
2018-11-05T09:32:49.000Z,45.20
2018-11-05T09:35:20.912Z,46.68
2018-11-05T09:37:52.885Z,42.10
2018-11-05T09:40:24.786Z,46.92
2018-11-05T09:42:56.828Z,40.85
2018-11-05T09:45:33.295Z,45.48
2018-11-05T09:48:05.412Z,44.95
2018-11-05T09:50:43.159Z,44.33
2018-11-05T09:53:14.998Z,46.25
2018-11-05T09:55:46.846Z,49.45
2018-11-05T09:58:18.783Z,38.78
2018-11-05T10:00:51.632Z,44.00
2018-11-05T10:03:23.978Z,80.90
2018-11-05T10:05:55.491Z,43.38
2018-11-05T10:11:04.465Z,40.43
2018-11-05T10:13:36.293Z,36.55
2018-11-05T10:16:08.432Z,39.35
2018-11-05T10:18:44.449Z,38.38
2018-11-05T10:21:16.480Z,40.17
2018-11-05T10:23:48.388Z,38.30
2018-11-05T10:26:20.591Z,46.55
2018-11-05T10:28:52.787Z,38.92
2018-11-05T10:31:25.979Z,39.85
2018-11-05T10:33:57.875Z,41.85
2018-11-05T10:36:29.790Z,32.45
2018-11-05T10:39:01.627Z,40.98
2018-11-05T10:41:33.559Z,38.80
2018-11-05T10:44:05.442Z,36.90
2018-11-05T10:46:37.327Z,31.52
2018-11-05T10:49:09.819Z,37.67
2018-11-05T10:51:41.799Z,33.40
2018-11-05T11:10:00.900Z,35.48
2018-11-05T11:12:32.755Z,43.85
2018-11-05T11:15:05.212Z,33.98
2018-11-05T11:17:37.483Z,39.73
2018-11-05T11:20:10.401Z,36.70
2018-11-05T11:22:42.412Z,40.95
2018-11-05T11:25:14.212Z,28.12
2018-11-05T11:27:46.115Z,32.30
2018-11-05T11:30:17.915Z,28.85
2018-11-05T11:32:50.852Z,30.55
2018-11-05T11:35:22.848Z,33.67
2018-11-05T11:37:54.794Z,33.58
2018-11-05T11:40:26.675Z,36.17
2018-11-05T11:42:58.590Z,27.10
2018-11-05T11:45:30.424Z,31.65
2018-11-05T11:48:02.259Z,29.18
2018-11-05T11:50:34.154Z,32.17
2018-11-05T11:53:06.136Z,29.27
2018-11-05T11:55:37.955Z,25.27
2018-11-05T11:58:09.821Z,28.27
2018-11-05T12:00:41.637Z,29.57
2018-11-05T12:03:13.503Z,23.83
2018-11-05T12:05:45.356Z,29.97
2018-11-05T12:08:17.268Z,26.37
2018-11-05T12:10:49.163Z,26.10
2018-11-05T12:13:20.975Z,22.73
2018-11-05T12:15:52.856Z,24.87
2018-11-05T12:18:24.819Z,36.30
2018-11-05T12:20:56.650Z,26.00
2018-11-05T12:23:28.539Z,27.80
2018-11-05T12:26:00.420Z,29.57
2018-11-05T12:28:32.230Z,28.73
2018-11-05T12:31:04.500Z,30.90
2018-11-05T12:33:36.340Z,23.03
2018-11-05T12:36:08.240Z,29.45
2018-11-05T12:38:40.151Z,27.50
2018-11-05T12:41:12.007Z,28.93
2018-11-05T12:43:43.875Z,29.65
2018-11-05T12:46:15.663Z,29.07
2018-11-05T12:48:47.585Z,27.80
2018-11-05T12:51:20.346Z,21.90
2018-11-05T12:53:52.254Z,25.07
2018-11-05T12:56:24.172Z,26.30
2018-11-05T12:58:56.314Z,25.07
2018-11-05T13:01:28.955Z,29.70
2018-11-05T13:04:00.897Z,26.87
2018-11-05T13:06:32.780Z,25.13
2018-11-05T13:09:06.128Z,26.87
2018-11-05T13:11:37.939Z,27.70
2018-11-05T13:14:09.784Z,29.80
2018-11-05T13:16:41.655Z,31.80
2018-11-05T13:19:13.584Z,24.97
2018-11-05T13:21:45.720Z,31.37
2018-11-05T13:26:49.548Z,25.73
2018-11-05T13:29:21.400Z,32.23
2018-11-05T13:31:53.211Z,26.20
2018-11-05T13:34:25.008Z,31.00
2018-11-05T13:36:57.079Z,33.70
2018-11-05T13:39:29.874Z,25.83
2018-11-05T13:42:01.712Z,31.50
2018-11-05T13:46:37.453Z,27.10
2018-11-05T13:49:09.714Z,28.97
2018-11-05T13:51:40.859Z,32.77
2018-11-05T13:54:12.755Z,27.60
2018-11-05T13:56:44.512Z,27.37
2018-11-05T13:59:16.415Z,31.70
2018-11-05T14:01:49.363Z,26.23
2018-11-05T14:04:21.325Z,31.73
2018-11-05T14:06:53.221Z,41.23
2018-11-05T14:09:25.061Z,34.00
2018-11-05T14:11:56.865Z,28.03
2018-11-05T14:14:28.761Z,29.53
2018-11-05T14:17:00.696Z,34.87
2018-11-05T14:19:32.554Z,32.57
2018-11-05T14:22:04.395Z,33.20
2018-11-05T14:24:36.266Z,31.95
2018-11-05T14:27:08.097Z,31.17
2018-11-05T14:29:40.587Z,30.80
2018-11-05T14:32:11.965Z,30.90
2018-11-05T14:34:43.777Z,30.00
2018-11-05T14:37:15.594Z,32.77
2018-11-05T14:39:47.503Z,30.60
2018-11-05T14:42:19.431Z,29.17
2018-11-05T14:44:51.347Z,26.47
2018-11-05T14:47:23.177Z,32.00
2018-11-05T14:49:55.059Z,30.80
2018-11-05T14:52:26.976Z,32.17
2018-11-05T14:54:58.944Z,30.53
2018-11-05T14:57:30.735Z,31.10
2018-11-05T15:00:03.195Z,32.30
2018-11-05T15:02:37.984Z,28.17
2018-11-05T15:05:10.898Z,31.20
2018-11-05T15:07:43.500Z,36.80
2018-11-05T15:10:17.625Z,35.37
2018-11-05T15:12:49.603Z,35.30
2018-11-05T15:15:21.966Z,41.13
2018-11-05T15:17:53.895Z,33.77
2018-11-05T15:20:25.832Z,44.20
2018-11-05T15:22:57.793Z,39.70
2018-11-05T15:25:29.745Z,27.90
2018-11-05T15:28:01.604Z,32.10
2018-11-05T15:30:33.475Z,38.38
2018-11-05T15:33:05.349Z,37.43
2018-11-05T15:35:38.234Z,42.67
2018-11-05T15:38:11.120Z,36.70
2018-11-05T15:40:42.946Z,38.60
2018-11-05T15:43:14.860Z,43.87
2018-11-05T15:45:46.750Z,43.45
2018-11-05T15:48:18.601Z,54.27
2018-11-05T15:50:50.498Z,43.85
2018-11-05T15:53:22.868Z,38.83
2018-11-05T15:55:54.279Z,42.15
2018-11-05T15:58:26.136Z,54.15
2018-11-05T16:00:57.993Z,48.80
2018-11-05T16:03:29.891Z,44.27
2018-11-05T16:06:01.773Z,43.83
2018-11-05T16:08:33.626Z,46.05
2018-11-05T16:11:05.520Z,49.35
2018-11-05T16:13:37.473Z,41.75
2018-11-05T16:16:09.343Z,52.38
2018-11-05T16:18:41.373Z,49.18
2018-11-05T16:21:13.223Z,50.73
2018-11-05T16:23:45.159Z,56.40
2018-11-05T16:26:16.990Z,54.85
2018-11-05T16:28:48.912Z,48.58
2018-11-05T16:31:20.759Z,61.33
2018-11-05T16:33:52.634Z,46.92
2018-11-05T16:36:24.516Z,51.90
2018-11-05T16:38:56.405Z,51.65
2018-11-05T16:41:30.160Z,50.08
2018-11-05T16:44:02.007Z,54.67
2018-11-05T16:46:33.896Z,47.13
2018-11-05T16:49:05.836Z,49.58
2018-11-05T16:51:37.705Z,57.20
2018-11-05T16:54:09.623Z,60.60
2018-11-05T16:56:41.560Z,64.07
2018-11-05T16:59:13.426Z,51.13
2018-11-05T17:01:45.737Z,50.95
2018-11-05T17:04:17.270Z,46.00
2018-11-05T17:06:49.217Z,54.20
2018-11-05T17:09:21.216Z,63.85
2018-11-05T17:11:53.084Z,56.58
2018-11-05T17:14:24.924Z,63.30
2018-11-05T17:16:56.815Z,59.65
2018-11-05T17:19:29.071Z,61.05
2018-11-05T17:22:01.027Z,62.85
2018-11-05T17:24:33.040Z,69.07
2018-11-05T17:27:05.048Z,48.68
2018-11-05T17:29:36.907Z,61.28
2018-11-05T17:32:08.773Z,74.22
2018-11-05T17:34:40.667Z,72.10
2018-11-05T17:37:12.586Z,66.33
2018-11-05T17:39:44.448Z,60.03
2018-11-05T17:42:16.331Z,71.60
2018-11-05T17:44:48.172Z,76.30
2018-11-05T17:47:20.095Z,77.85
2018-11-05T17:49:52.046Z,59.42
2018-11-05T17:52:23.902Z,66.05
2018-11-05T17:54:55.752Z,59.48
2018-11-05T17:57:27.614Z,74.20
2018-11-05T17:59:59.521Z,69.05
2018-11-05T18:02:31.371Z,61.90
2018-11-05T18:05:03.242Z,57.23
2018-11-05T18:07:35.157Z,50.20
2018-11-05T18:10:07.126Z,61.90
2018-11-05T18:12:39.005Z,69.53
2018-11-05T18:15:11.702Z,72.95
2018-11-05T18:17:44.517Z,50.58
2018-11-05T18:20:17.152Z,60.08
2018-11-05T18:22:50.070Z,60.83
2018-11-05T18:25:21.925Z,64.42
2018-11-05T18:27:54.965Z,73.47
2018-11-05T18:30:26.811Z,53.20
2018-11-05T18:32:58.713Z,55.38
2018-11-05T18:42:21.615Z,62.33
2018-11-05T18:44:53.457Z,72.85
2018-11-05T18:47:25.386Z,66.28
2018-11-05T18:49:57.310Z,65.70
2018-11-05T18:52:29.188Z,63.40
2018-11-05T18:55:01.184Z,66.07
2018-11-05T18:57:33.073Z,51.55
2018-11-05T19:00:07.690Z,61.30
2018-11-05T19:02:39.630Z,47.45
2018-11-05T19:05:12.731Z,57.40
2018-11-05T19:07:44.645Z,58.13
2018-11-05T19:10:16.994Z,54.95
2018-11-05T19:12:50.920Z,65.12
2018-11-05T19:15:22.825Z,56.28
2018-11-05T19:17:54.651Z,61.95
2018-11-05T19:20:26.651Z,68.02
2018-11-05T19:22:59.826Z,94.03
2018-11-05T19:25:31.461Z,59.45
2018-11-05T19:28:03.348Z,76.02
2018-11-05T19:30:35.352Z,96.45
2018-11-05T19:33:07.229Z,89.37
2018-11-05T19:35:39.166Z,84.47
2018-11-05T19:38:11.065Z,77.25
2018-11-05T19:40:42.956Z,90.42
2018-11-05T19:43:14.926Z,67.72
2018-11-05T19:45:46.921Z,79.65
2018-11-05T19:48:18.840Z,70.32
2018-11-05T19:50:50.711Z,83.42
2018-11-05T19:53:22.681Z,81.92
2018-11-05T19:55:54.578Z,90.12
2018-11-05T19:58:26.424Z,86.28
2018-11-05T20:00:58.318Z,79.17
2018-11-05T20:03:30.183Z,79.30
2018-11-05T20:06:02.117Z,67.40
2018-11-05T20:08:33.943Z,86.10
2018-11-05T20:11:05.839Z,85.22
2018-11-05T20:13:37.700Z,82.62
2018-11-05T20:16:09.640Z,76.82
2018-11-05T20:18:41.554Z,83.10
2018-11-05T20:21:13.429Z,88.75
2018-11-05T20:23:45.323Z,84.90
2018-11-05T20:26:17.191Z,80.35
2018-11-05T20:28:49.084Z,80.77
2018-11-05T20:31:21.129Z,93.27
2018-11-05T20:33:53.012Z,90.75
2018-11-05T20:36:24.728Z,79.97
2018-11-05T20:38:56.605Z,81.75
2018-11-05T20:41:28.542Z,100.55
2018-11-05T20:44:00.484Z,84.40
2018-11-05T20:46:32.443Z,102.30
2018-11-05T20:49:04.298Z,114.47
2018-11-05T20:51:36.164Z,122.80
2018-11-05T20:54:08.019Z,97.05
2018-11-05T20:56:40.045Z,94.40
2018-11-05T20:59:11.929Z,118.17
2018-11-05T21:01:43.755Z,101.90
2018-11-05T21:04:15.670Z,105.07
2018-11-05T21:06:47.553Z,102.85
2018-11-05T21:09:19.494Z,97.62
2018-11-05T21:11:53.484Z,91.00
2018-11-05T21:14:25.476Z,82.10
2018-11-05T21:16:57.260Z,79.37
2018-11-05T21:19:29.112Z,84.70
2018-11-05T21:22:01.040Z,82.25
2018-11-05T21:24:32.947Z,72.08
2018-11-05T21:27:04.816Z,76.70
2018-11-05T21:29:36.833Z,73.07
2018-11-05T21:32:08.715Z,78.12
2018-11-05T21:34:40.648Z,95.60
2018-11-05T21:37:12.475Z,102.25
2018-11-05T21:39:44.337Z,95.30
2018-11-05T21:42:16.203Z,104.25
2018-11-05T21:44:48.151Z,110.15
2018-11-05T21:47:20.076Z,87.80
2018-11-05T21:49:51.944Z,88.75
2018-11-05T21:52:23.795Z,78.35
2018-11-05T21:54:55.664Z,86.42
2018-11-05T21:57:27.537Z,86.90
2018-11-05T21:59:59.453Z,93.40
2018-11-05T22:02:35.853Z,86.32
2018-11-05T22:05:07.784Z,85.17
2018-11-05T22:07:39.691Z,81.50
2018-11-05T22:10:12.400Z,83.20
2018-11-05T22:12:44.903Z,65.83
2018-11-05T22:15:16.795Z,76.75
2018-11-05T22:17:48.698Z,68.67
2018-11-05T22:20:20.547Z,82.10
2018-11-05T22:22:52.448Z,76.72
2018-11-05T22:25:24.294Z,78.87
2018-11-05T22:27:56.164Z,69.22
2018-11-05T22:30:28.014Z,85.20
2018-11-05T22:32:59.970Z,86.55
2018-11-05T22:35:31.913Z,86.63
2018-11-05T22:38:03.847Z,74.30
2018-11-05T22:40:35.924Z,102.32
2018-11-05T22:43:07.702Z,95.38
2018-11-05T22:45:39.562Z,88.00
2018-11-05T22:48:11.467Z,78.57
2018-11-05T22:50:43.374Z,76.57
2018-11-05T22:53:15.242Z,85.65
2018-11-05T22:55:47.090Z,78.65
2018-11-05T22:58:18.928Z,76.87
2018-11-05T23:00:56.507Z,81.37
2018-11-05T23:03:29.494Z,72.67
2018-11-05T23:06:01.360Z,82.70
2018-11-05T23:08:33.226Z,79.15
2018-11-05T23:11:05.122Z,70.72
2018-11-05T23:13:36.968Z,77.65
2018-11-05T23:16:08.824Z,83.55
2018-11-05T23:18:40.727Z,78.25
2018-11-05T23:21:12.624Z,79.35
2018-11-05T23:23:44.451Z,73.90
2018-11-05T23:26:16.311Z,80.10
2018-11-05T23:28:48.185Z,72.78
2018-11-05T23:31:20.048Z,73.57
2018-11-05T23:33:52.009Z,74.92
2018-11-05T23:36:23.883Z,63.25
2018-11-05T23:38:55.788Z,69.40
2018-11-05T23:41:27.578Z,61.33
2018-11-05T23:43:59.477Z,65.90
2018-11-05T23:46:31.325Z,57.15
2018-11-05T23:49:03.207Z,58.68
2018-11-05T23:51:35.093Z,53.35
2018-11-05T23:54:07.110Z,66.30
2018-11-05T23:56:38.956Z,72.15
2018-11-05T23:59:10.891Z,72.10
